EDT,Max TemperatureF,Mean TemperatureF,Min TemperatureF,Max Dew PointF,MeanDew PointF,Min DewpointF,Max Humidity, Mean Humidity, Min Humidity, Max Sea Level PressureIn, Mean Sea Level PressureIn, Min Sea Level PressureIn, Max VisibilityMiles, Mean VisibilityMiles, Min VisibilityMiles, Max Wind SpeedMPH, Mean Wind SpeedMPH, Max Gust SpeedMPH,PrecipitationIn, CloudCover, Events, WindDirDegrees
2013-3-1,31,27,23,28,25,21,92,89,85,29.79,29.68,29.57,10,6,1,10,4,16,0.03,8,Snow,330
2013-3-2,23,19,14,21,15,12,96,88,80,29.82,29.75,29.70,10,4,1,8,3,13,0.04,8,Snow,273
2013-3-3,21,18,15,16,14,12,92,85,77,29.77,29.71,29.65,10,6,1,10,3,15,0.02,8,Snow,249
2013-3-4,19,16,13,16,14,10,96,90,84,29.93,29.78,29.69,10,4,1,14,7,21,0.02,8,Snow,254
2013-3-5,34,26,17,25,20,15,92,81,69,30.10,30.01,29.88,10,8,2,15,4,18,0.01,7,Rain-Snow,147
2013-3-6,38,30,22,28,25,21,100,81,61,30.16,30.09,30.00,10,7,2,18,10,24,T,7,Snow,62
2013-3-7,29,26,23,22,20,17,96,80,63,30.22,30.15,30.08,10,6,1,17,8,21,0.01,8,Snow,33
2013-3-8,37,24,11,21,18,9,92,70,48,30.36,30.23,30.11,10,10,2,14,5,17,T,5,Snow,16
2013-3-9,49,25,0,20,11,-3,100,63,26,30.38,30.33,30.25,10,10,10,5,1,,0.00,1,,3
2013-3-10,50,32,14,23,18,13,92,58,24,30.28,30.17,30.08,10,10,10,23,6,26,0.00,4,,210
2013-3-11,52,43,34,32,25,22,70,53,35,30.09,29.98,29.85,10,10,10,29,9,37,0.02,2,,215
2013-3-12,48,40,31,44,35,28,100,90,80,29.85,29.76,29.71,10,5,2,16,8,32,0.34,8,Rain-Snow,225
2013-3-13,33,29,24,29,25,18,92,76,59,29.82,29.75,29.69,10,7,0,16,7,24,0.01,8,Fog-Snow,242
2013-3-14,24,17,10,20,8,0,88,75,61,29.93,29.77,29.66,10,4,1,17,8,26,0.01,8,Snow,260
2013-3-15,29,15,0,25,17,-1,95,76,56,29.93,29.62,29.47,10,4,0,15,6,18,0.04,7,Fog-Snow,251
2013-3-16,21,8,-5,16,9,-3,92,72,51,29.93,29.79,29.68,10,6,2,10,3,15,T,7,Snow,235
2013-3-17,19,6,-8,5,-1,-10,91,63,34,30.35,30.04,29.82,10,8,2,14,5,22,T,5,Snow,246
2013-3-18,30,8,-14,13,-3,-18,87,61,35,30.42,30.28,29.98,10,10,8,14,4,16,T,1,Snow,71
2013-3-19,31,27,22,28,24,18,92,82,72,29.94,29.71,29.62,10,2,0,15,7,24,0.25,8,Fog-Snow,172
2013-3-20,29,23,17,23,18,13,92,78,63,29.71,29.63,29.57,10,5,0,22,9,32,T,8,Fog-Snow,243
2013-3-21,26,16,5,18,13,3,92,74,55,29.70,29.63,29.56,10,8,1,20,7,24,T,6,Snow,237
2013-3-22,26,19,12,19,16,8,91,80,68,29.76,29.63,29.55,10,4,0,16,6,20,T,8,Snow,248
2013-3-23,31,27,22,21,19,14,96,73,49,29.85,29.72,29.64,10,6,1,16,8,31,0.01,8,Snow,276
2013-3-24,32,20,7,22,19,10,100,80,59,29.88,29.82,29.74,10,10,9,10,4,15,T,7,Snow,328
2013-3-25,36,21,5,24,17,5,91,72,52,29.81,29.69,29.61,10,10,9,17,5,21,T,4,Snow,45
2013-3-26,39,31,22,23,19,15,84,62,40,29.83,29.72,29.61,10,10,10,15,5,20,T,7,,18
2013-3-27,40,32,24,25,23,17,85,68,50,29.95,29.86,29.79,10,10,9,12,4,18,T,8,Snow,241
2013-3-28,41,35,28,34,29,24,92,78,64,30.09,29.98,29.89,10,6,1,9,3,12,0.02,8,Snow,231
2013-3-29,39,32,25,31,29,25,92,76,59,30.10,30.06,30.01,10,9,1,12,5,17,0.02,8,Snow,242
2013-3-30,44,30,15,26,16,9,100,62,24,30.13,30.07,30.03,10,5,0,12,2,17,0.00,2,Fog,267
2013-3-31,48,32,15,32,24,13,92,63,34,30.09,29.86,29.63,10,9,2,25,8,36,T,4,,186